sensor_id;sensor_type;location;lat;lon;timestamp;P1;durP1;ratioP1;P2;durP2;ratioP2
39426;SDS011;25938;48.470;1.486;2023-02-28T00:01:30;5.18;;;3.08;;
39426;SDS011;25938;48.470;1.486;2023-02-28T00:03:56;6.03;;;4.18;;
39426;SDS011;25938;48.470;1.486;2023-02-28T00:06:22;4.07;;;3.22;;
39426;SDS011;25938;48.470;1.486;2023-02-28T00:08:49;4.30;;;3.67;;
39426;SDS011;25938;48.470;1.486;2023-02-28T00:11:15;4.68;;;3.80;;
39426;SDS011;25938;48.470;1.486;2023-02-28T00:13:42;4.10;;;3.53;;
39426;SDS011;25938;48.470;1.486;2023-02-28T00:16:12;3.47;;;3.22;;
39426;SDS011;25938;48.470;1.486;2023-02-28T00:18:38;3.20;;;3.00;;
39426;SDS011;25938;48.470;1.486;2023-02-28T00:21:05;4.47;;;3.85;;
39426;SDS011;25938;48.470;1.486;2023-02-28T00:23:31;5.28;;;3.20;;
39426;SDS011;25938;48.470;1.486;2023-02-28T00:25:58;4.50;;;4.07;;
39426;SDS011;25938;48.470;1.486;2023-02-28T00:28:24;5.20;;;3.95;;
39426;SDS011;25938;48.470;1.486;2023-02-28T00:30:50;3.72;;;3.35;;
39426;SDS011;25938;48.470;1.486;2023-02-28T00:33:16;4.07;;;3.65;;
39426;SDS011;25938;48.470;1.486;2023-02-28T00:35:43;3.63;;;3.33;;
39426;SDS011;25938;48.470;1.486;2023-02-28T00:38:11;3.75;;;3.42;;
39426;SDS011;25938;48.470;1.486;2023-02-28T00:40:37;3.45;;;3.15;;
39426;SDS011;25938;48.470;1.486;2023-02-28T00:43:03;3.75;;;3.08;;
39426;SDS011;25938;48.470;1.486;2023-02-28T00:45:29;4.30;;;3.45;;
39426;SDS011;25938;48.470;1.486;2023-02-28T00:47:55;3.40;;;3.03;;
39426;SDS011;25938;48.470;1.486;2023-02-28T00:50:22;3.30;;;3.05;;
39426;SDS011;25938;48.470;1.486;2023-02-28T00:52:48;3.97;;;3.63;;
39426;SDS011;25938;48.470;1.486;2023-02-28T00:55:14;4.35;;;3.40;;
39426;SDS011;25938;48.470;1.486;2023-02-28T00:57:40;3.92;;;3.50;;
39426;SDS011;25938;48.470;1.486;2023-02-28T01:00:07;3.53;;;3.25;;
39426;SDS011;25938;48.470;1.486;2023-02-28T01:02:34;4.63;;;3.40;;
39426;SDS011;25938;48.470;1.486;2023-02-28T01:05:00;4.07;;;3.10;;
39426;SDS011;25938;48.470;1.486;2023-02-28T01:07:26;3.53;;;3.22;;
39426;SDS011;25938;48.470;1.486;2023-02-28T01:09:52;2.97;;;2.78;;
39426;SDS011;25938;48.470;1.486;2023-02-28T01:12:18;3.17;;;2.97;;
39426;SDS011;25938;48.470;1.486;2023-02-28T01:14:44;4.32;;;3.08;;
39426;SDS011;25938;48.470;1.486;2023-02-28T01:17:10;3.40;;;3.10;;
39426;SDS011;25938;48.470;1.486;2023-02-28T01:19:36;3.45;;;2.95;;
39426;SDS011;25938;48.470;1.486;2023-02-28T01:22:03;4.18;;;2.60;;
39426;SDS011;25938;48.470;1.486;2023-02-28T01:24:30;2.90;;;2.67;;
39426;SDS011;25938;48.470;1.486;2023-02-28T01:26:56;3.42;;;3.10;;
39426;SDS011;25938;48.470;1.486;2023-02-28T01:29:22;4.18;;;2.63;;
39426;SDS011;25938;48.470;1.486;2023-02-28T01:31:48;2.95;;;2.75;;
39426;SDS011;25938;48.470;1.486;2023-02-28T01:34:14;3.30;;;2.40;;
39426;SDS011;25938;48.470;1.486;2023-02-28T01:36:40;5.32;;;3.25;;
39426;SDS011;25938;48.470;1.486;2023-02-28T01:39:06;3.13;;;2.90;;
39426;SDS011;25938;48.470;1.486;2023-02-28T01:41:34;3.42;;;3.00;;
39426;SDS011;25938;48.470;1.486;2023-02-28T01:46:28;3.42;;;3.20;;
39426;SDS011;25938;48.470;1.486;2023-02-28T01:51:41;3.67;;;3.10;;
39426;SDS011;25938;48.470;1.486;2023-02-28T01:54:11;3.35;;;3.05;;
39426;SDS011;25938;48.470;1.486;2023-02-28T01:56:38;5.55;;;3.75;;
39426;SDS011;25938;48.470;1.486;2023-02-28T01:59:05;3.75;;;2.97;;
39426;SDS011;25938;48.470;1.486;2023-02-28T02:01:31;5.78;;;3.05;;
39426;SDS011;25938;48.470;1.486;2023-02-28T02:03:59;3.47;;;2.72;;
39426;SDS011;25938;48.470;1.486;2023-02-28T02:06:45;2.65;;;2.45;;
39426;SDS011;25938;48.470;1.486;2023-02-28T02:09:12;3.30;;;2.63;;
39426;SDS011;25938;48.470;1.486;2023-02-28T02:11:39;3.10;;;2.90;;
39426;SDS011;25938;48.470;1.486;2023-02-28T02:14:17;3.17;;;2.45;;
39426;SDS011;25938;48.470;1.486;2023-02-28T02:26:50;3.20;;;2.85;;
39426;SDS011;25938;48.470;1.486;2023-02-28T02:34:26;3.33;;;2.72;;
39426;SDS011;25938;48.470;1.486;2023-02-28T02:47:41;3.08;;;2.58;;
39426;SDS011;25938;48.470;1.486;2023-02-28T02:50:11;3.25;;;2.90;;
39426;SDS011;25938;48.470;1.486;2023-02-28T02:52:39;2.42;;;2.28;;
39426;SDS011;25938;48.470;1.486;2023-02-28T02:55:06;3.45;;;2.65;;
39426;SDS011;25938;48.470;1.486;2023-02-28T03:00:32;2.70;;;2.60;;
39426;SDS011;25938;48.470;1.486;2023-02-28T03:03:00;2.95;;;2.65;;
39426;SDS011;25938;48.470;1.486;2023-02-28T03:05:28;2.53;;;2.20;;
39426;SDS011;25938;48.470;1.486;2023-02-28T03:07:56;3.50;;;2.38;;
39426;SDS011;25938;48.470;1.486;2023-02-28T03:10:33;2.47;;;2.28;;
39426;SDS011;25938;48.470;1.486;2023-02-28T03:13:11;5.25;;;3.00;;
39426;SDS011;25938;48.470;1.486;2023-02-28T03:18:14;3.00;;;2.80;;
39426;SDS011;25938;48.470;1.486;2023-02-28T03:26:04;3.33;;;3.08;;
39426;SDS011;25938;48.470;1.486;2023-02-28T03:31:03;2.90;;;2.60;;
39426;SDS011;25938;48.470;1.486;2023-02-28T03:33:38;2.75;;;2.53;;
39426;SDS011;25938;48.470;1.486;2023-02-28T03:36:10;2.97;;;2.78;;
39426;SDS011;25938;48.470;1.486;2023-02-28T03:38:38;3.35;;;3.05;;
39426;SDS011;25938;48.470;1.486;2023-02-28T03:41:11;3.75;;;3.45;;
39426;SDS011;25938;48.470;1.486;2023-02-28T03:43:39;2.47;;;2.20;;
39426;SDS011;25938;48.470;1.486;2023-02-28T03:46:09;4.07;;;2.53;;
39426;SDS011;25938;48.470;1.486;2023-02-28T03:48:40;4.43;;;2.80;;
39426;SDS011;25938;48.470;1.486;2023-02-28T03:51:07;3.03;;;2.80;;
39426;SDS011;25938;48.470;1.486;2023-02-28T03:53:36;2.35;;;2.00;;
39426;SDS011;25938;48.470;1.486;2023-02-28T03:56:05;3.25;;;3.00;;
39426;SDS011;25938;48.470;1.486;2023-02-28T03:58:36;2.83;;;2.58;;
39426;SDS011;25938;48.470;1.486;2023-02-28T04:01:13;2.83;;;2.63;;
39426;SDS011;25938;48.470;1.486;2023-02-28T04:03:40;2.35;;;2.15;;
39426;SDS011;25938;48.470;1.486;2023-02-28T04:06:07;2.63;;;2.42;;
39426;SDS011;25938;48.470;1.486;2023-02-28T04:08:34;2.10;;;1.88;;
39426;SDS011;25938;48.470;1.486;2023-02-28T04:11:01;3.10;;;2.80;;
39426;SDS011;25938;48.470;1.486;2023-02-28T04:13:29;2.53;;;2.33;;
39426;SDS011;25938;48.470;1.486;2023-02-28T04:15:55;2.90;;;2.60;;
39426;SDS011;25938;48.470;1.486;2023-02-28T04:18:21;3.22;;;2.50;;
39426;SDS011;25938;48.470;1.486;2023-02-28T04:20:47;2.83;;;2.58;;
39426;SDS011;25938;48.470;1.486;2023-02-28T04:23:13;4.07;;;2.38;;
39426;SDS011;25938;48.470;1.486;2023-02-28T04:25:39;2.75;;;2.55;;
39426;SDS011;25938;48.470;1.486;2023-02-28T04:28:06;3.33;;;2.30;;
39426;SDS011;25938;48.470;1.486;2023-02-28T04:30:32;2.65;;;2.15;;
39426;SDS011;25938;48.470;1.486;2023-02-28T04:32:58;4.32;;;2.40;;
39426;SDS011;25938;48.470;1.486;2023-02-28T04:35:24;3.00;;;2.65;;
39426;SDS011;25938;48.470;1.486;2023-02-28T04:37:50;2.70;;;2.42;;
39426;SDS011;25938;48.470;1.486;2023-02-28T04:40:16;3.42;;;2.15;;
39426;SDS011;25938;48.470;1.486;2023-02-28T04:42:42;3.13;;;2.40;;
39426;SDS011;25938;48.470;1.486;2023-02-28T04:45:08;2.20;;;2.00;;
39426;SDS011;25938;48.470;1.486;2023-02-28T04:47:35;4.03;;;2.90;;
39426;SDS011;25938;48.470;1.486;2023-02-28T04:50:01;2.30;;;2.13;;
39426;SDS011;25938;48.470;1.486;2023-02-28T04:52:28;3.60;;;2.45;;
39426;SDS011;25938;48.470;1.486;2023-02-28T04:54:54;3.80;;;2.42;;
39426;SDS011;25938;48.470;1.486;2023-02-28T04:57:20;3.83;;;3.30;;
39426;SDS011;25938;48.470;1.486;2023-02-28T04:59:47;3.03;;;1.95;;
39426;SDS011;25938;48.470;1.486;2023-02-28T05:02:13;4.07;;;2.92;;
39426;SDS011;25938;48.470;1.486;2023-02-28T05:04:39;2.50;;;2.25;;
39426;SDS011;25938;48.470;1.486;2023-02-28T05:07:05;2.08;;;1.92;;
39426;SDS011;25938;48.470;1.486;2023-02-28T05:09:31;3.03;;;2.78;;
39426;SDS011;25938;48.470;1.486;2023-02-28T05:11:58;2.78;;;2.25;;
39426;SDS011;25938;48.470;1.486;2023-02-28T05:14:24;3.63;;;2.70;;
39426;SDS011;25938;48.470;1.486;2023-02-28T05:16:50;3.97;;;3.33;;
39426;SDS011;25938;48.470;1.486;2023-02-28T05:19:16;2.35;;;2.17;;
39426;SDS011;25938;48.470;1.486;2023-02-28T05:21:55;3.65;;;2.80;;
39426;SDS011;25938;48.470;1.486;2023-02-28T05:24:21;2.97;;;2.65;;
39426;SDS011;25938;48.470;1.486;2023-02-28T05:26:48;2.88;;;2.05;;
39426;SDS011;25938;48.470;1.486;2023-02-28T05:29:16;3.13;;;2.70;;
39426;SDS011;25938;48.470;1.486;2023-02-28T05:31:42;2.65;;;2.45;;
39426;SDS011;25938;48.470;1.486;2023-02-28T05:34:08;4.88;;;2.67;;
39426;SDS011;25938;48.470;1.486;2023-02-28T05:36:36;3.58;;;2.80;;
39426;SDS011;25938;48.470;1.486;2023-02-28T05:39:02;3.15;;;2.90;;
39426;SDS011;25938;48.470;1.486;2023-02-28T05:41:28;3.35;;;3.10;;
39426;SDS011;25938;48.470;1.486;2023-02-28T05:43:55;4.75;;;2.85;;
39426;SDS011;25938;48.470;1.486;2023-02-28T05:46:21;3.10;;;2.80;;
39426;SDS011;25938;48.470;1.486;2023-02-28T05:48:47;3.15;;;2.60;;
39426;SDS011;25938;48.470;1.486;2023-02-28T05:51:13;2.85;;;2.45;;
39426;SDS011;25938;48.470;1.486;2023-02-28T05:53:39;5.55;;;3.17;;
39426;SDS011;25938;48.470;1.486;2023-02-28T05:56:05;2.88;;;2.65;;
39426;SDS011;25938;48.470;1.486;2023-02-28T05:58:31;3.25;;;2.60;;
39426;SDS011;25938;48.470;1.486;2023-02-28T06:00:58;4.72;;;2.85;;
39426;SDS011;25938;48.470;1.486;2023-02-28T06:03:24;3.42;;;2.85;;
39426;SDS011;25938;48.470;1.486;2023-02-28T06:05:51;2.80;;;2.42;;
39426;SDS011;25938;48.470;1.486;2023-02-28T06:08:17;3.08;;;2.78;;
39426;SDS011;25938;48.470;1.486;2023-02-28T06:10:43;3.50;;;3.00;;
39426;SDS011;25938;48.470;1.486;2023-02-28T06:13:10;3.17;;;2.85;;
39426;SDS011;25938;48.470;1.486;2023-02-28T06:15:37;2.78;;;2.58;;
39426;SDS011;25938;48.470;1.486;2023-02-28T06:18:03;2.88;;;2.58;;
39426;SDS011;25938;48.470;1.486;2023-02-28T06:20:30;3.42;;;3.13;;
39426;SDS011;25938;48.470;1.486;2023-02-28T06:22:56;3.22;;;2.40;;
39426;SDS011;25938;48.470;1.486;2023-02-28T06:25:26;3.67;;;2.30;;
39426;SDS011;25938;48.470;1.486;2023-02-28T06:27:52;3.70;;;3.08;;
39426;SDS011;25938;48.470;1.486;2023-02-28T06:30:20;3.88;;;3.58;;
39426;SDS011;25938;48.470;1.486;2023-02-28T06:32:51;4.25;;;3.60;;
39426;SDS011;25938;48.470;1.486;2023-02-28T06:35:17;3.83;;;3.03;;
39426;SDS011;25938;48.470;1.486;2023-02-28T06:37:44;3.35;;;3.05;;
39426;SDS011;25938;48.470;1.486;2023-02-28T06:40:10;4.60;;;3.28;;
39426;SDS011;25938;48.470;1.486;2023-02-28T06:42:37;3.45;;;2.85;;
39426;SDS011;25938;48.470;1.486;2023-02-28T06:45:04;4.32;;;3.15;;
39426;SDS011;25938;48.470;1.486;2023-02-28T06:47:34;4.40;;;3.17;;
39426;SDS011;25938;48.470;1.486;2023-02-28T06:50:00;5.53;;;3.50;;
39426;SDS011;25938;48.470;1.486;2023-02-28T06:52:26;6.32;;;3.60;;
39426;SDS011;25938;48.470;1.486;2023-02-28T06:54:52;4.03;;;2.63;;
39426;SDS011;25938;48.470;1.486;2023-02-28T06:57:25;4.22;;;3.25;;
39426;SDS011;25938;48.470;1.486;2023-02-28T06:59:51;3.70;;;3.40;;
39426;SDS011;25938;48.470;1.486;2023-02-28T07:02:17;5.28;;;2.85;;
39426;SDS011;25938;48.470;1.486;2023-02-28T07:04:43;4.38;;;3.50;;
39426;SDS011;25938;48.470;1.486;2023-02-28T07:07:09;3.38;;;3.08;;
39426;SDS011;25938;48.470;1.486;2023-02-28T07:09:35;4.30;;;3.25;;
39426;SDS011;25938;48.470;1.486;2023-02-28T07:12:02;4.18;;;3.78;;
39426;SDS011;25938;48.470;1.486;2023-02-28T07:14:28;3.30;;;3.00;;
39426;SDS011;25938;48.470;1.486;2023-02-28T07:16:54;3.75;;;3.45;;
39426;SDS011;25938;48.470;1.486;2023-02-28T07:19:20;4.88;;;3.47;;
39426;SDS011;25938;48.470;1.486;2023-02-28T07:21:46;4.95;;;3.33;;
39426;SDS011;25938;48.470;1.486;2023-02-28T07:24:12;4.88;;;3.38;;
39426;SDS011;25938;48.470;1.486;2023-02-28T07:26:40;3.78;;;3.45;;
39426;SDS011;25938;48.470;1.486;2023-02-28T07:29:06;5.03;;;4.28;;
39426;SDS011;25938;48.470;1.486;2023-02-28T07:31:32;4.72;;;3.38;;
39426;SDS011;25938;48.470;1.486;2023-02-28T07:33:58;4.10;;;3.67;;
39426;SDS011;25938;48.470;1.486;2023-02-28T07:36:25;3.55;;;2.88;;
39426;SDS011;25938;48.470;1.486;2023-02-28T07:38:51;5.18;;;3.60;;
39426;SDS011;25938;48.470;1.486;2023-02-28T07:41:19;6.22;;;3.97;;
39426;SDS011;25938;48.470;1.486;2023-02-28T07:43:46;6.45;;;3.45;;
39426;SDS011;25938;48.470;1.486;2023-02-28T07:46:13;4.28;;;3.92;;
39426;SDS011;25938;48.470;1.486;2023-02-28T07:48:42;4.88;;;3.20;;
39426;SDS011;25938;48.470;1.486;2023-02-28T07:51:08;5.55;;;4.07;;
39426;SDS011;25938;48.470;1.486;2023-02-28T07:53:34;3.20;;;2.90;;
39426;SDS011;25938;48.470;1.486;2023-02-28T07:56:01;3.72;;;3.40;;
39426;SDS011;25938;48.470;1.486;2023-02-28T07:58:28;5.80;;;4.45;;
39426;SDS011;25938;48.470;1.486;2023-02-28T08:00:55;5.95;;;4.60;;
39426;SDS011;25938;48.470;1.486;2023-02-28T08:03:22;6.18;;;4.22;;
39426;SDS011;25938;48.470;1.486;2023-02-28T08:05:48;5.82;;;4.47;;
39426;SDS011;25938;48.470;1.486;2023-02-28T08:08:15;4.40;;;3.97;;
39426;SDS011;25938;48.470;1.486;2023-02-28T08:10:42;5.50;;;3.92;;
39426;SDS011;25938;48.470;1.486;2023-02-28T08:13:08;4.85;;;3.28;;
39426;SDS011;25938;48.470;1.486;2023-02-28T08:15:34;4.38;;;3.60;;
39426;SDS011;25938;48.470;1.486;2023-02-28T08:18:01;6.15;;;4.25;;
39426;SDS011;25938;48.470;1.486;2023-02-28T08:20:27;5.45;;;3.88;;
39426;SDS011;25938;48.470;1.486;2023-02-28T08:22:53;4.88;;;3.03;;
39426;SDS011;25938;48.470;1.486;2023-02-28T08:25:19;4.28;;;3.88;;
39426;SDS011;25938;48.470;1.486;2023-02-28T08:27:46;5.93;;;4.22;;
39426;SDS011;25938;48.470;1.486;2023-02-28T08:30:12;4.38;;;3.97;;
39426;SDS011;25938;48.470;1.486;2023-02-28T08:32:39;4.78;;;4.38;;
39426;SDS011;25938;48.470;1.486;2023-02-28T08:35:05;5.32;;;3.88;;
39426;SDS011;25938;48.470;1.486;2023-02-28T08:37:31;5.43;;;4.22;;
39426;SDS011;25938;48.470;1.486;2023-02-28T08:39:57;4.13;;;3.63;;
39426;SDS011;25938;48.470;1.486;2023-02-28T08:42:24;6.45;;;3.67;;
39426;SDS011;25938;48.470;1.486;2023-02-28T08:44:50;6.07;;;3.25;;
39426;SDS011;25938;48.470;1.486;2023-02-28T08:47:16;4.53;;;3.42;;
39426;SDS011;25938;48.470;1.486;2023-02-28T08:49:42;5.28;;;4.10;;
39426;SDS011;25938;48.470;1.486;2023-02-28T08:52:08;7.15;;;4.57;;
39426;SDS011;25938;48.470;1.486;2023-02-28T08:54:34;4.28;;;3.22;;
39426;SDS011;25938;48.470;1.486;2023-02-28T08:57:00;4.88;;;3.72;;
39426;SDS011;25938;48.470;1.486;2023-02-28T08:59:27;4.15;;;3.60;;
39426;SDS011;25938;48.470;1.486;2023-02-28T09:01:53;4.57;;;4.05;;
39426;SDS011;25938;48.470;1.486;2023-02-28T09:04:19;4.03;;;3.45;;
39426;SDS011;25938;48.470;1.486;2023-02-28T09:06:45;4.68;;;4.28;;
39426;SDS011;25938;48.470;1.486;2023-02-28T09:09:11;5.63;;;3.88;;
39426;SDS011;25938;48.470;1.486;2023-02-28T09:11:37;5.65;;;4.00;;
39426;SDS011;25938;48.470;1.486;2023-02-28T09:14:03;4.45;;;4.05;;
39426;SDS011;25938;48.470;1.486;2023-02-28T09:16:30;5.35;;;3.50;;
39426;SDS011;25938;48.470;1.486;2023-02-28T09:18:56;4.32;;;3.08;;
39426;SDS011;25938;48.470;1.486;2023-02-28T09:21:23;4.30;;;3.70;;
39426;SDS011;25938;48.470;1.486;2023-02-28T09:23:50;4.88;;;3.90;;
39426;SDS011;25938;48.470;1.486;2023-02-28T09:26:17;4.18;;;3.78;;
39426;SDS011;25938;48.470;1.486;2023-02-28T09:28:44;5.22;;;3.33;;
39426;SDS011;25938;48.470;1.486;2023-02-28T09:31:14;4.38;;;3.58;;
39426;SDS011;25938;48.470;1.486;2023-02-28T09:33:41;3.45;;;3.15;;
39426;SDS011;25938;48.470;1.486;2023-02-28T09:36:07;4.43;;;4.03;;
39426;SDS011;25938;48.470;1.486;2023-02-28T09:38:33;3.45;;;3.15;;
39426;SDS011;25938;48.470;1.486;2023-02-28T09:41:03;5.13;;;3.45;;
39426;SDS011;25938;48.470;1.486;2023-02-28T09:43:34;3.78;;;3.47;;
39426;SDS011;25938;48.470;1.486;2023-02-28T09:48:47;3.53;;;3.15;;
39426;SDS011;25938;48.470;1.486;2023-02-28T09:53:58;4.13;;;3.25;;
39426;SDS011;25938;48.470;1.486;2023-02-28T09:56:26;4.38;;;2.70;;
39426;SDS011;25938;48.470;1.486;2023-02-28T09:58:54;3.30;;;2.83;;
39426;SDS011;25938;48.470;1.486;2023-02-28T10:01:35;3.55;;;2.50;;
39426;SDS011;25938;48.470;1.486;2023-02-28T10:06:45;3.25;;;2.58;;
39426;SDS011;25938;48.470;1.486;2023-02-28T10:09:33;4.88;;;2.95;;
39426;SDS011;25938;48.470;1.486;2023-02-28T10:12:05;4.63;;;3.47;;
39426;SDS011;25938;48.470;1.486;2023-02-28T10:14:32;3.78;;;2.75;;
39426;SDS011;25938;48.470;1.486;2023-02-28T10:17:01;4.68;;;2.53;;
39426;SDS011;25938;48.470;1.486;2023-02-28T10:22:00;3.17;;;2.88;;
39426;SDS011;25938;48.470;1.486;2023-02-28T10:24:37;2.65;;;2.28;;
39426;SDS011;25938;48.470;1.486;2023-02-28T10:29:37;3.22;;;2.90;;
39426;SDS011;25938;48.470;1.486;2023-02-28T10:32:06;2.63;;;2.42;;
39426;SDS011;25938;48.470;1.486;2023-02-28T10:34:32;3.83;;;2.65;;
39426;SDS011;25938;48.470;1.486;2023-02-28T10:36:58;5.78;;;3.17;;
39426;SDS011;25938;48.470;1.486;2023-02-28T10:42:04;2.70;;;2.50;;
39426;SDS011;25938;48.470;1.486;2023-02-28T10:44:30;2.55;;;1.92;;
39426;SDS011;25938;48.470;1.486;2023-02-28T10:46:56;2.25;;;1.90;;
39426;SDS011;25938;48.470;1.486;2023-02-28T10:49:23;2.17;;;1.98;;
39426;SDS011;25938;48.470;1.486;2023-02-28T10:51:52;2.42;;;2.03;;
39426;SDS011;25938;48.470;1.486;2023-02-28T10:54:19;3.40;;;2.28;;
39426;SDS011;25938;48.470;1.486;2023-02-28T10:57:04;1.88;;;1.60;;
39426;SDS011;25938;48.470;1.486;2023-02-28T10:59:31;3.30;;;1.75;;
39426;SDS011;25938;48.470;1.486;2023-02-28T11:01:57;2.40;;;2.10;;
39426;SDS011;25938;48.470;1.486;2023-02-28T11:07:20;2.35;;;1.60;;
39426;SDS011;25938;48.470;1.486;2023-02-28T11:09:48;1.30;;;1.20;;
39426;SDS011;25938;48.470;1.486;2023-02-28T11:12:19;2.60;;;1.42;;
39426;SDS011;25938;48.470;1.486;2023-02-28T11:14:47;1.75;;;1.27;;
39426;SDS011;25938;48.470;1.486;2023-02-28T11:17:15;2.13;;;1.83;;
39426;SDS011;25938;48.470;1.486;2023-02-28T11:19:46;1.83;;;1.52;;
39426;SDS011;25938;48.470;1.486;2023-02-28T11:22:17;3.10;;;2.38;;
39426;SDS011;25938;48.470;1.486;2023-02-28T11:24:44;1.90;;;1.42;;
39426;SDS011;25938;48.470;1.486;2023-02-28T11:29:52;2.45;;;1.02;;
39426;SDS011;25938;48.470;1.486;2023-02-28T11:32:20;2.30;;;1.20;;
39426;SDS011;25938;48.470;1.486;2023-02-28T11:34:47;1.67;;;1.23;;
39426;SDS011;25938;48.470;1.486;2023-02-28T11:37:25;2.13;;;0.85;;
39426;SDS011;25938;48.470;1.486;2023-02-28T11:39:53;1.65;;;1.55;;
39426;SDS011;25938;48.470;1.486;2023-02-28T11:47:45;1.27;;;0.80;;
39426;SDS011;25938;48.470;1.486;2023-02-28T11:52:51;1.75;;;0.82;;
39426;SDS011;25938;48.470;1.486;2023-02-28T12:13:29;1.13;;;0.80;;
39426;SDS011;25938;48.470;1.486;2023-02-28T12:26:31;2.10;;;1.00;;
39426;SDS011;25938;48.470;1.486;2023-02-28T12:29:04;0.50;;;0.40;;
39426;SDS011;25938;48.470;1.486;2023-02-28T12:31:36;1.60;;;0.88;;
39426;SDS011;25938;48.470;1.486;2023-02-28T12:34:16;1.58;;;0.80;;
39426;SDS011;25938;48.470;1.486;2023-02-28T12:36:43;1.40;;;0.88;;
39426;SDS011;25938;48.470;1.486;2023-02-28T12:39:13;2.67;;;1.33;;
39426;SDS011;25938;48.470;1.486;2023-02-28T12:41:42;1.40;;;1.10;;
39426;SDS011;25938;48.470;1.486;2023-02-28T12:46:43;2.53;;;0.88;;
39426;SDS011;25938;48.470;1.486;2023-02-28T12:49:15;0.77;;;0.77;;
39426;SDS011;25938;48.470;1.486;2023-02-28T12:51:43;1.60;;;0.70;;
39426;SDS011;25938;48.470;1.486;2023-02-28T12:56:42;1.67;;;0.70;;
39426;SDS011;25938;48.470;1.486;2023-02-28T13:01:42;1.67;;;0.75;;
39426;SDS011;25938;48.470;1.486;2023-02-28T13:09:11;1.48;;;1.02;;
39426;SDS011;25938;48.470;1.486;2023-02-28T13:11:46;1.23;;;0.80;;
39426;SDS011;25938;48.470;1.486;2023-02-28T13:14:20;1.90;;;0.95;;
39426;SDS011;25938;48.470;1.486;2023-02-28T13:16:58;1.52;;;1.38;;
39426;SDS011;25938;48.470;1.486;2023-02-28T13:19:26;1.10;;;0.88;;
39426;SDS011;25938;48.470;1.486;2023-02-28T13:21:53;0.60;;;0.57;;
39426;SDS011;25938;48.470;1.486;2023-02-28T13:29:31;1.13;;;1.00;;
39426;SDS011;25938;48.470;1.486;2023-02-28T13:34:34;1.65;;;1.13;;
39426;SDS011;25938;48.470;1.486;2023-02-28T13:39:55;0.93;;;0.82;;
39426;SDS011;25938;48.470;1.486;2023-02-28T13:50:14;1.08;;;0.50;;
39426;SDS011;25938;48.470;1.486;2023-02-28T14:06:15;1.00;;;0.73;;
39426;SDS011;25938;48.470;1.486;2023-02-28T14:08:47;1.00;;;0.80;;
39426;SDS011;25938;48.470;1.486;2023-02-28T14:11:24;2.72;;;0.65;;
39426;SDS011;25938;48.470;1.486;2023-02-28T14:13:50;1.92;;;0.80;;
39426;SDS011;25938;48.470;1.486;2023-02-28T14:16:17;1.27;;;0.90;;
39426;SDS011;25938;48.470;1.486;2023-02-28T14:21:31;1.13;;;0.68;;
39426;SDS011;25938;48.470;1.486;2023-02-28T14:26:43;2.53;;;1.05;;
39426;SDS011;25938;48.470;1.486;2023-02-28T14:34:29;0.98;;;0.98;;
39426;SDS011;25938;48.470;1.486;2023-02-28T14:36:58;2.17;;;1.85;;
39426;SDS011;25938;48.470;1.486;2023-02-28T14:39:26;1.55;;;1.33;;
39426;SDS011;25938;48.470;1.486;2023-02-28T14:41:55;0.50;;;0.50;;
39426;SDS011;25938;48.470;1.486;2023-02-28T14:44:27;0.93;;;0.70;;
39426;SDS011;25938;48.470;1.486;2023-02-28T14:46:54;1.77;;;0.95;;
39426;SDS011;25938;48.470;1.486;2023-02-28T14:49:21;2.20;;;0.70;;
39426;SDS011;25938;48.470;1.486;2023-02-28T14:51:49;0.77;;;0.60;;
39426;SDS011;25938;48.470;1.486;2023-02-28T14:54:16;1.70;;;0.98;;
39426;SDS011;25938;48.470;1.486;2023-02-28T14:56:49;1.00;;;0.80;;
39426;SDS011;25938;48.470;1.486;2023-02-28T14:59:23;1.45;;;0.73;;
39426;SDS011;25938;48.470;1.486;2023-02-28T15:01:49;1.25;;;0.60;;
39426;SDS011;25938;48.470;1.486;2023-02-28T15:04:22;1.17;;;0.70;;
39426;SDS011;25938;48.470;1.486;2023-02-28T15:07:09;0.80;;;0.77;;
39426;SDS011;25938;48.470;1.486;2023-02-28T15:09:36;1.13;;;0.90;;
39426;SDS011;25938;48.470;1.486;2023-02-28T15:12:02;0.57;;;0.57;;
39426;SDS011;25938;48.470;1.486;2023-02-28T15:14:28;0.95;;;0.73;;
39426;SDS011;25938;48.470;1.486;2023-02-28T15:16:59;0.95;;;0.60;;
39426;SDS011;25938;48.470;1.486;2023-02-28T15:19:28;1.95;;;0.85;;
39426;SDS011;25938;48.470;1.486;2023-02-28T15:21:59;1.35;;;0.93;;
39426;SDS011;25938;48.470;1.486;2023-02-28T15:24:32;1.90;;;0.70;;
39426;SDS011;25938;48.470;1.486;2023-02-28T15:27:03;0.55;;;0.52;;
39426;SDS011;25938;48.470;1.486;2023-02-28T15:29:30;0.70;;;0.60;;
39426;SDS011;25938;48.470;1.486;2023-02-28T15:32:03;0.43;;;0.40;;
39426;SDS011;25938;48.470;1.486;2023-02-28T15:34:33;2.08;;;1.10;;
39426;SDS011;25938;48.470;1.486;2023-02-28T15:37:00;2.05;;;0.60;;
39426;SDS011;25938;48.470;1.486;2023-02-28T15:39:27;1.13;;;0.60;;
39426;SDS011;25938;48.470;1.486;2023-02-28T15:42:11;1.38;;;0.70;;
39426;SDS011;25938;48.470;1.486;2023-02-28T15:44:38;0.82;;;0.50;;
39426;SDS011;25938;48.470;1.486;2023-02-28T15:47:14;1.45;;;1.00;;
39426;SDS011;25938;48.470;1.486;2023-02-28T15:49:45;0.43;;;0.43;;
39426;SDS011;25938;48.470;1.486;2023-02-28T15:52:14;1.95;;;1.00;;
39426;SDS011;25938;48.470;1.486;2023-02-28T15:54:41;0.90;;;0.52;;
39426;SDS011;25938;48.470;1.486;2023-02-28T15:57:10;2.40;;;0.90;;
39426;SDS011;25938;48.470;1.486;2023-02-28T15:59:37;1.40;;;1.10;;
39426;SDS011;25938;48.470;1.486;2023-02-28T16:04:36;1.98;;;1.15;;
39426;SDS011;25938;48.470;1.486;2023-02-28T16:07:03;1.85;;;1.42;;
39426;SDS011;25938;48.470;1.486;2023-02-28T16:09:30;1.65;;;1.00;;
39426;SDS011;25938;48.470;1.486;2023-02-28T16:11:56;1.65;;;0.93;;
39426;SDS011;25938;48.470;1.486;2023-02-28T16:14:26;1.27;;;0.70;;
39426;SDS011;25938;48.470;1.486;2023-02-28T16:16:56;1.02;;;0.85;;
39426;SDS011;25938;48.470;1.486;2023-02-28T16:19:23;1.08;;;0.90;;
39426;SDS011;25938;48.470;1.486;2023-02-28T16:21:49;1.00;;;1.00;;
39426;SDS011;25938;48.470;1.486;2023-02-28T16:24:15;1.15;;;1.00;;
39426;SDS011;25938;48.470;1.486;2023-02-28T16:26:41;1.25;;;1.05;;
39426;SDS011;25938;48.470;1.486;2023-02-28T16:29:13;3.50;;;1.33;;
39426;SDS011;25938;48.470;1.486;2023-02-28T16:31:41;2.45;;;1.33;;
39426;SDS011;25938;48.470;1.486;2023-02-28T16:34:07;0.73;;;0.60;;
39426;SDS011;25938;48.470;1.486;2023-02-28T16:36:33;1.23;;;0.90;;
39426;SDS011;25938;48.470;1.486;2023-02-28T16:38:59;2.38;;;1.60;;
39426;SDS011;25938;48.470;1.486;2023-02-28T16:41:26;1.13;;;0.88;;
39426;SDS011;25938;48.470;1.486;2023-02-28T16:43:53;1.42;;;1.08;;
39426;SDS011;25938;48.470;1.486;2023-02-28T16:46:23;3.17;;;1.25;;
39426;SDS011;25938;48.470;1.486;2023-02-28T16:48:50;2.50;;;1.10;;
39426;SDS011;25938;48.470;1.486;2023-02-28T16:51:16;2.05;;;1.80;;
39426;SDS011;25938;48.470;1.486;2023-02-28T16:53:43;1.77;;;1.27;;
39426;SDS011;25938;48.470;1.486;2023-02-28T16:56:17;2.13;;;1.50;;
39426;SDS011;25938;48.470;1.486;2023-02-28T16:58:44;0.93;;;0.80;;
39426;SDS011;25938;48.470;1.486;2023-02-28T17:01:10;1.95;;;1.20;;
39426;SDS011;25938;48.470;1.486;2023-02-28T17:03:36;1.42;;;1.33;;
39426;SDS011;25938;48.470;1.486;2023-02-28T17:06:03;1.50;;;1.02;;
39426;SDS011;25938;48.470;1.486;2023-02-28T17:08:30;1.17;;;1.13;;
39426;SDS011;25938;48.470;1.486;2023-02-28T17:10:57;2.55;;;1.38;;
39426;SDS011;25938;48.470;1.486;2023-02-28T17:13:23;3.10;;;1.30;;
39426;SDS011;25938;48.470;1.486;2023-02-28T17:15:49;2.75;;;2.17;;
39426;SDS011;25938;48.470;1.486;2023-02-28T17:18:16;1.45;;;1.35;;
39426;SDS011;25938;48.470;1.486;2023-02-28T17:20:44;1.60;;;1.50;;
39426;SDS011;25938;48.470;1.486;2023-02-28T17:23:10;1.30;;;1.20;;
39426;SDS011;25938;48.470;1.486;2023-02-28T17:25:36;1.50;;;1.40;;
39426;SDS011;25938;48.470;1.486;2023-02-28T17:28:03;1.20;;;1.05;;
39426;SDS011;25938;48.470;1.486;2023-02-28T17:30:29;1.27;;;1.17;;
39426;SDS011;25938;48.470;1.486;2023-02-28T17:32:55;2.03;;;1.20;;